ACA42P EDDF-EGLL
Flight info
| Callsign | ACA42P |
|---|---|
| Flight time | N/A |
| Altitude | 38000 |
| Route | OBOKA5G/25C OBOKA Z29 TORNU DCT ABNED L980 LOGAN LOGAN2H |
| Aircraft | B789/H-V/N |
Departure
| Time | 2026-05-05 18:57 |
|---|---|
| Airport | Frankfurt Main Airport (EDDF) |
Arrival
| Time | N/A |
|---|---|
| Airport | London Heathrow Airport (EGLL) |
| Time | Latitude | Longitude | Altitude | Speed | Heading |
|---|---|---|---|---|---|
| 2026-05-05 18:20 | 50.04545 | 8.56738 | 353 ft | 0 kts | 295° |
| 2026-05-05 18:46 | 50.04541 | 8.56752 | 355 ft | 3 kts | 295° |
| 2026-05-05 18:46 | 50.04532 | 8.56780 | 355 ft | 3 kts | 295° |
| 2026-05-05 18:46 | 50.04524 | 8.56809 | 355 ft | 3 kts | 294° |
| 2026-05-05 18:46 | 50.04517 | 8.56836 | 354 ft | 3 kts | 264° |
| 2026-05-05 18:47 | 50.04520 | 8.56853 | 354 ft | 1 kts | 245° |
| 2026-05-05 18:47 | 50.04528 | 8.56876 | 355 ft | 3 kts | 220° |
| 2026-05-05 18:47 | 50.04544 | 8.56890 | 355 ft | 3 kts | 193° |
| 2026-05-05 18:47 | 50.04561 | 8.56895 | 354 ft | 1 kts | 194° |
| 2026-05-05 18:48 | 50.04546 | 8.56890 | 355 ft | 2 kts | 194° |
| 2026-05-05 18:48 | 50.04543 | 8.56888 | 355 ft | 0 kts | 194° |
| 2026-05-05 18:51 | 50.04479 | 8.56867 | 350 ft | 13 kts | 192° |
| 2026-05-05 18:51 | 50.04386 | 8.56838 | 351 ft | 14 kts | 190° |
| 2026-05-05 18:52 | 50.04299 | 8.56824 | 346 ft | 11 kts | 165° |
| 2026-05-05 18:52 | 50.04277 | 8.56862 | 350 ft | 5 kts | 104° |
| 2026-05-05 18:52 | 50.04283 | 8.56949 | 349 ft | 10 kts | 72° |
| 2026-05-05 18:52 | 50.04314 | 8.57062 | 352 ft | 12 kts | 67° |
| 2026-05-05 18:53 | 50.04345 | 8.57194 | 352 ft | 14 kts | 69° |
| 2026-05-05 18:53 | 50.04381 | 8.57343 | 350 ft | 16 kts | 69° |
| 2026-05-05 18:53 | 50.04422 | 8.57514 | 349 ft | 18 kts | 70° |
| 2026-05-05 18:53 | 50.04467 | 8.57700 | 350 ft | 18 kts | 70° |
| 2026-05-05 18:54 | 50.04510 | 8.57884 | 353 ft | 17 kts | 70° |
| 2026-05-05 18:54 | 50.04553 | 8.58068 | 352 ft | 19 kts | 70° |
| 2026-05-05 18:54 | 50.04594 | 8.58236 | 353 ft | 16 kts | 70° |
| 2026-05-05 18:54 | 50.04635 | 8.58405 | 347 ft | 18 kts | 69° |
| 2026-05-05 18:55 | 50.04647 | 8.58551 | 349 ft | 7 kts | 120° |
| 2026-05-05 18:55 | 50.04632 | 8.58568 | 353 ft | 4 kts | 156° |
| 2026-05-05 18:55 | 50.04588 | 8.58594 | 348 ft | 10 kts | 158° |
| 2026-05-05 18:55 | 50.04514 | 8.58610 | 354 ft | 10 kts | 202° |
| 2026-05-05 18:56 | 50.04473 | 8.58533 | 353 ft | 9 kts | 250° |
| 2026-05-05 18:56 | 50.04469 | 8.58516 | 352 ft | 6 kts | 250° |
| 2026-05-05 18:56 | 50.04406 | 8.58253 | 350 ft | 58 kts | 250° |
| 2026-05-05 18:56 | 50.04173 | 8.57282 | 350 ft | 132 kts | 250° |
| 2026-05-05 18:57 | 50.03801 | 8.55690 | 706 ft | 166 kts | 251° |
| 2026-05-05 18:57 | 50.03406 | 8.54070 | 1871 ft | 161 kts | 248° |
| 2026-05-05 18:57 | 50.02986 | 8.52381 | 2707 ft | 181 kts | 249° |
| 2026-05-05 18:57 | 50.02665 | 8.50378 | 3649 ft | 202 kts | 269° |
| 2026-05-05 18:58 | 50.02886 | 8.48092 | 4578 ft | 223 kts | 275° |
| 2026-05-05 18:58 | 50.03028 | 8.45623 | 4989 ft | 233 kts | 272° |
| 2026-05-05 18:58 | 50.02904 | 8.43106 | 5057 ft | 241 kts | 257° |
| 2026-05-05 18:58 | 50.02560 | 8.40448 | 5053 ft | 253 kts | 258° |
| 2026-05-05 18:59 | 50.02224 | 8.37720 | 5029 ft | 260 kts | 258° |
| 2026-05-05 18:59 | 50.01901 | 8.34967 | 5031 ft | 258 kts | 258° |
| 2026-05-05 18:59 | 50.01572 | 8.32194 | 5179 ft | 265 kts | 258° |
| 2026-05-05 18:59 | 50.01282 | 8.29459 | 6824 ft | 254 kts | 265° |
| 2026-05-05 19:00 | 50.01594 | 8.26707 | 8167 ft | 265 kts | 288° |
| 2026-05-05 19:00 | 50.02339 | 8.24043 | 9550 ft | 271 kts | 291° |
| 2026-05-05 19:00 | 50.03154 | 8.21328 | 10599 ft | 288 kts | 292° |
| 2026-05-05 19:00 | 50.04021 | 8.18401 | 11259 ft | 315 kts | 292° |
| 2026-05-05 19:01 | 50.04961 | 8.15151 | 11933 ft | 339 kts | 292° |
| 2026-05-05 19:01 | 50.06016 | 8.11802 | 12742 ft | 354 kts | 300° |
| 2026-05-05 19:01 | 50.07540 | 8.08744 | 12856 ft | 357 kts | 307° |
| 2026-05-05 19:01 | 50.09112 | 8.05774 | 12854 ft | 353 kts | 307° |
| 2026-05-05 19:02 | 50.10670 | 8.02780 | 13573 ft | 353 kts | 306° |
| 2026-05-05 19:02 | 50.12196 | 7.99789 | 14750 ft | 357 kts | 306° |
| 2026-05-05 19:02 | 50.13768 | 7.96713 | 15746 ft | 366 kts | 306° |
| 2026-05-05 19:02 | 50.15374 | 7.93591 | 16744 ft | 374 kts | 306° |
| 2026-05-05 19:03 | 50.17024 | 7.90380 | 17660 ft | 383 kts | 306° |
| 2026-05-05 19:03 | 50.18704 | 7.87097 | 18558 ft | 390 kts | 307° |
| 2026-05-05 19:03 | 50.20382 | 7.83812 | 19408 ft | 395 kts | 307° |
| 2026-05-05 19:03 | 50.22108 | 7.80433 | 20234 ft | 400 kts | 307° |
| 2026-05-05 19:04 | 50.23860 | 7.77003 | 21034 ft | 406 kts | 308° |
| 2026-05-05 19:04 | 50.25905 | 7.73911 | 21726 ft | 415 kts | 324° |
| 2026-05-05 19:04 | 50.28456 | 7.71747 | 22429 ft | 421 kts | 335° |
| 2026-05-05 19:04 | 50.31161 | 7.69881 | 23130 ft | 427 kts | 336° |
| 2026-05-05 19:05 | 50.33915 | 7.68039 | 23706 ft | 433 kts | 336° |
| 2026-05-05 19:05 | 50.36713 | 7.66139 | 23812 ft | 440 kts | 336° |
| 2026-05-05 19:05 | 50.39501 | 7.64206 | 23808 ft | 435 kts | 336° |
| 2026-05-05 19:05 | 50.42278 | 7.62284 | 23807 ft | 438 kts | 336° |
| 2026-05-05 19:06 | 50.45069 | 7.60371 | 23804 ft | 438 kts | 336° |
| 2026-05-05 19:06 | 50.47853 | 7.58420 | 23938 ft | 439 kts | 332° |
| 2026-05-05 19:06 | 50.50319 | 7.55734 | 24629 ft | 438 kts | 317° |
| 2026-05-05 19:06 | 50.52440 | 7.52190 | 25148 ft | 442 kts | 308° |
| 2026-05-05 19:07 | 50.54317 | 7.48336 | 25704 ft | 445 kts | 304° |
| 2026-05-05 19:07 | 50.55502 | 7.45695 | 26060 ft | 448 kts | 303° |
| 2026-05-05 19:07 | 50.57850 | 7.40251 | 26837 ft | 451 kts | 303° |
| 2026-05-05 19:07 | 50.59639 | 7.36151 | 27310 ft | 456 kts | 304° |